Time;durP1;ratioP1;P1;durP2;ratioP2;P2;SDS_P1;SDS_P2;PMS_P1;PMS_P2;Temp;Humidity;BMP_temperature;BMP_pressure;BME280_temperature;BME280_humidity;BME280_pressure;Samples;Min_cycle;Max_cycle;Signal;HPM_P1;HPM_P2
2022/04/29 00:01:45;;;;;;;23.83;11.70;;;19.40;46.60;;;;;;7399064;19;20028;-83
2022/04/29 00:04:15;;;;;;;19.13;11.57;;;19.30;46.70;;;;;;7379286;19;20011;-84
2022/04/29 00:06:43;;;;;;;23.23;11.50;;;19.40;46.80;;;;;;7379472;19;20050;-83
2022/04/29 00:09:12;;;;;;;30.38;11.20;;;19.30;46.90;;;;;;7378890;19;20502;-82
2022/04/29 00:11:41;;;;;;;15.90;10.15;;;19.20;47.00;;;;;;7376361;19;20324;-82
2022/04/29 00:14:10;;;;;;;17.00;10.35;;;19.20;47.40;;;;;;7377083;19;20067;-83
2022/04/29 00:16:39;;;;;;;15.55;10.25;;;19.20;47.30;;;;;;7395735;19;20022;-82
2022/04/29 00:19:10;;;;;;;22.45;10.88;;;19.20;47.20;;;;;;7373213;19;20027;-83
2022/04/29 00:21:40;;;;;;;;;;;19.10;47.20;;;;;;7372979;19;20022;-82
2022/04/29 00:24:10;;;;;;;20.48;10.13;;;19.20;47.30;;;;;;7376494;19;19915;-82
2022/04/29 00:26:39;;;;;;;18.27;10.45;;;19.10;47.50;;;;;;7373216;19;20122;-82
2022/04/29 00:29:08;;;;;;;18.27;10.65;;;19.10;47.80;;;;;;7376365;19;20085;-82
2022/04/29 00:31:38;;;;;;;16.90;10.63;;;19.10;47.90;;;;;;7399946;19;20031;-82
2022/04/29 00:34:10;;;;;;;18.17;10.80;;;19.10;47.80;;;;;;7377630;19;20003;-81
2022/04/29 00:36:39;;;;;;;19.67;11.23;;;19.10;47.90;;;;;;7379949;19;20078;-82
2022/04/29 00:39:07;;;;;;;20.00;12.15;;;19.00;47.90;;;;;;7376863;19;20032;-84
2022/04/29 00:41:40;;;;;;;17.08;10.82;;;19.00;47.80;;;;;;7380882;19;20030;-83
2022/04/29 00:44:10;;;;;;;21.45;12.00;;;19.00;48.30;;;;;;7376279;19;20027;-84
2022/04/29 00:46:41;;;;;;;21.95;11.77;;;18.90;48.10;;;;;;7397339;19;20020;-84
2022/04/29 00:49:15;;;;;;;16.10;10.63;;;18.80;48.20;;;;;;7374493;19;20014;-84
2022/04/29 00:51:47;;;;;;;20.48;12.48;;;18.80;48.50;;;;;;7374429;19;20498;-84
2022/04/29 00:54:24;;;;;;;23.10;11.07;;;18.70;48.40;;;;;;7375050;19;20010;-84
2022/04/29 00:56:55;;;;;;;26.88;11.52;;;18.70;48.50;;;;;;7373281;19;20014;-83
2022/04/29 00:59:29;;;;;;;22.50;12.45;;;18.60;48.50;;;;;;7377113;19;20013;-83
2022/04/29 01:01:59;;;;;;;30.02;13.15;;;18.60;48.50;;;;;;7397693;19;20506;-84
2022/04/29 01:04:34;;;;;;;26.00;13.23;;;18.50;48.50;;;;;;7375995;19;20029;-83
2022/04/29 01:07:05;;;;;;;22.30;12.60;;;18.60;48.60;;;;;;7374707;19;20035;-83
2022/04/29 01:09:33;;;;;;;24.50;12.85;;;18.60;48.60;;;;;;7376813;19;20099;-84
2022/04/29 01:12:02;;;;;;;24.50;13.63;;;18.60;48.60;;;;;;7375098;19;20022;-84
2022/04/29 01:14:31;;;;;;;23.88;13.57;;;18.60;48.50;;;;;;7374959;19;20353;-84
2022/04/29 01:17:00;;;;;;;23.00;14.25;;;18.60;48.50;;;;;;7394744;19;20562;-84
2022/04/29 01:19:31;;;;;;;24.20;13.43;;;18.60;48.50;;;;;;7375384;19;20082;-85
2022/04/29 01:22:07;;;;;;;23.27;14.13;;;18.70;48.50;;;;;;7376660;19;20021;-84
2022/04/29 01:24:36;;;;;;;25.60;14.18;;;18.60;48.30;;;;;;7378819;19;20018;-84
2022/04/29 01:27:13;;;;;;;28.58;15.40;;;18.60;48.50;;;;;;7373755;19;20062;-85
2022/04/29 01:29:44;;;;;;;25.23;14.45;;;18.50;48.50;;;;;;7377844;19;20026;-84
2022/04/29 01:32:17;;;;;;;25.08;14.93;;;18.50;48.60;;;;;;7378972;19;20093;-84
2022/04/29 01:34:46;;;;;;;27.83;14.50;;;18.60;48.60;;;;;;7393983;19;20038;-84
2022/04/29 01:37:17;;;;;;;26.63;15.35;;;18.40;48.70;;;;;;7373304;19;20022;-85
2022/04/29 01:39:46;;;;;;;30.13;16.38;;;18.40;48.90;;;;;;7374161;19;20075;-84
2022/04/29 01:42:15;;;;;;;25.38;16.02;;;18.20;49.00;;;;;;7375644;19;20046;-84
2022/04/29 01:44:45;;;;;;;25.88;15.15;;;18.20;49.30;;;;;;7378304;19;20010;-83
2022/04/29 01:47:14;;;;;;;27.98;15.75;;;18.10;49.20;;;;;;7375522;19;20015;-84
2022/04/29 01:49:43;;;;;;;27.70;15.02;;;18.10;49.30;;;;;;7396079;19;20078;-83
2022/04/29 01:52:12;;;;;;;25.38;15.68;;;18.20;49.40;;;;;;7374028;19;20019;-83
2022/04/29 01:54:44;;;;;;;24.05;14.68;;;18.30;49.40;;;;;;7376503;19;20082;-84
2022/04/29 01:57:12;;;;;;;;;;;18.30;49.40;;;;;;7380975;19;20023;-83
2022/04/29 01:59:41;;;;;;;22.55;14.48;;;18.40;49.40;;;;;;7378725;19;19918;-83
2022/04/29 02:02:10;;;;;;;31.15;16.13;;;18.40;49.40;;;;;;7374200;19;20034;-83
2022/04/29 02:04:39;;;;;;;29.77;15.98;;;18.40;49.50;;;;;;7393881;19;20014;-83
2022/04/29 02:07:10;;;;;;;28.25;16.23;;;18.40;49.50;;;;;;7370868;19;20033;-83
2022/04/29 02:09:38;;;;;;;31.05;17.05;;;18.30;49.50;;;;;;7371972;19;20036;-83
2022/04/29 02:12:11;;;;;;;31.23;16.83;;;18.30;49.50;;;;;;7369531;19;20039;-84
2022/04/29 02:14:42;;;;;;;32.35;16.70;;;18.20;49.50;;;;;;7370963;19;20044;-83
2022/04/29 02:17:12;;;;;;;30.43;16.87;;;18.10;49.60;;;;;;7370745;19;20018;-83
2022/04/29 02:19:42;;;;;;;29.67;16.92;;;18.10;49.70;;;;;;7394985;19;20292;-83
2022/04/29 02:22:12;;;;;;;30.33;16.85;;;18.10;49.80;;;;;;7373274;19;20557;-84
2022/04/29 02:24:42;;;;;;;31.48;16.85;;;18.10;49.80;;;;;;7370907;19;20035;-83
2022/04/29 02:27:13;;;;;;;35.22;17.70;;;18.20;49.80;;;;;;7370732;19;20545;-84
2022/04/29 02:29:42;;;;;;;33.90;17.15;;;18.20;49.60;;;;;;7371585;19;20014;-83
2022/04/29 02:32:11;;;;;;;30.83;17.48;;;18.30;49.60;;;;;;7370820;19;20019;-83
2022/04/29 02:34:41;;;;;;;30.48;16.83;;;18.20;49.60;;;;;;7393802;19;20130;-83
2022/04/29 02:37:10;;;;;;;30.30;17.33;;;18.20;49.50;;;;;;7370757;19;20022;-84
2022/04/29 02:39:39;;;;;;;35.28;17.70;;;18.30;49.50;;;;;;7370934;19;20031;-84
2022/04/29 02:42:09;;;;;;;30.30;16.40;;;18.30;49.50;;;;;;7370849;19;20014;-83
2022/04/29 02:44:41;;;;;;;31.67;17.80;;;18.30;49.30;;;;;;7370361;19;20013;-83
2022/04/29 02:47:10;;;;;;;27.23;16.52;;;18.20;49.30;;;;;;7367297;19;20540;-83
2022/04/29 02:49:39;;;;;;;30.60;16.98;;;18.30;49.40;;;;;;7392524;19;20057;-83
2022/04/29 02:52:09;;;;;;;35.20;18.20;;;18.20;49.10;;;;;;7370939;19;20127;-83
2022/04/29 02:54:38;;;;;;;28.92;18.17;;;18.20;49.00;;;;;;7372210;19;20010;-83
2022/04/29 02:57:12;;;;;;;31.77;17.50;;;18.20;49.20;;;;;;7377330;19;20006;-83
2022/04/29 02:59:43;;;;;;;27.98;17.20;;;18.10;49.30;;;;;;7379509;19;20022;-83
2022/04/29 03:02:12;;;;;;;;;;;18.10;49.50;;;;;;7380738;19;20029;-84
2022/04/29 03:04:41;;;;;;;29.00;17.95;;;18.10;49.30;;;;;;7400267;19;19929;-84
2022/04/29 03:07:10;;;;;;;36.03;17.90;;;18.10;49.20;;;;;;7378822;19;20032;-83
2022/04/29 03:09:38;;;;;;;32.92;17.83;;;18.10;49.80;;;;;;7379449;19;20019;-84
2022/04/29 03:12:12;;;;;;;35.60;19.05;;;18.10;49.20;;;;;;7383244;19;20518;-84
2022/04/29 03:14:43;;;;;;;34.58;18.48;;;18.10;49.10;;;;;;7378339;19;20011;-83
2022/04/29 03:18:17;;;;;;;31.08;18.83;;;18.10;49.10;;;;;;7388315;19;20031;-84
2022/04/29 03:20:01;;;;;;;29.88;18.73;;;17.90;49.10;;;;;;7433857;19;20003;-83
2022/04/29 03:22:30;;;;;;;33.97;17.83;;;18.00;49.20;;;;;;7412730;19;20011;-85
2022/04/29 03:24:59;;;;;;;35.08;18.67;;;18.00;49.20;;;;;;7394859;19;20014;-83
2022/04/29 03:27:28;;;;;;;40.15;18.60;;;17.90;48.90;;;;;;7381363;19;20086;-84
2022/04/29 03:29:59;;;;;;;35.03;18.58;;;17.80;49.10;;;;;;7378542;19;20490;-83
2022/04/29 03:32:28;;;;;;;31.58;17.88;;;17.80;49.20;;;;;;7378274;19;20028;-84
2022/04/29 03:35:00;;;;;;;34.63;18.75;;;17.80;49.10;;;;;;7399348;19;20471;-83
2022/04/29 03:37:33;;;;;;;35.40;18.65;;;17.80;49.10;;;;;;7376030;19;20090;-84
2022/04/29 03:40:01;;;;;;;38.22;18.45;;;17.90;49.20;;;;;;7377519;19;20069;-83
2022/04/29 03:42:30;;;;;;;34.67;18.85;;;17.90;49.20;;;;;;7377708;19;20311;-83
2022/04/29 03:45:02;;;;;;;33.88;19.25;;;17.90;49.10;;;;;;7377552;19;20015;-84
2022/04/29 03:47:30;;;;;;;;;;;17.80;49.00;;;;;;7376795;19;20014;-84
2022/04/29 03:50:01;;;;;;;33.00;17.52;;;17.80;49.10;;;;;;7395736;19;19946;-83
2022/04/29 03:52:30;;;;;;;30.52;18.45;;;17.90;49.10;;;;;;7376678;19;20018;-84
2022/04/29 03:54:59;;;;;;;36.83;18.30;;;17.90;48.80;;;;;;7376500;19;20114;-84
2022/04/29 03:57:27;;;;;;;35.80;19.52;;;17.90;48.80;;;;;;7375337;19;20027;-83
2022/04/29 03:59:56;;;;;;;29.25;18.25;;;18.00;48.90;;;;;;7376931;19;20025;-83
2022/04/29 04:02:28;;;;;;;38.55;19.35;;;17.90;48.80;;;;;;7375834;19;20022;-83
2022/04/29 04:04:57;;;;;;;33.80;19.33;;;18.00;48.90;;;;;;7397978;19;20011;-84
2022/04/29 04:07:26;;;;;;;40.25;19.27;;;18.00;48.70;;;;;;7372526;19;20059;-83
2022/04/29 04:09:54;;;;;;;37.67;19.77;;;18.00;48.60;;;;;;7375372;19;20041;-83
2022/04/29 04:12:24;;;;;;;33.75;18.15;;;18.00;48.50;;;;;;7374101;19;20491;-83
2022/04/29 04:14:53;;;;;;;38.03;19.50;;;18.00;48.60;;;;;;7375762;19;20014;-82
2022/04/29 04:17:21;;;;;;;32.58;18.27;;;17.90;48.60;;;;;;7375483;19;20760;-83
2022/04/29 04:19:53;;;;;;;31.58;17.98;;;17.90;48.70;;;;;;7397119;19;20506;-83
2022/04/29 04:22:21;;;;;;;30.70;19.10;;;17.90;48.80;;;;;;7373774;19;20014;-83
2022/04/29 04:24:50;;;;;;;38.17;18.90;;;18.00;48.80;;;;;;7374710;19;20018;-83
2022/04/29 04:27:19;;;;;;;33.30;18.85;;;17.90;48.80;;;;;;7374455;19;20122;-84
2022/04/29 04:29:47;;;;;;;34.10;18.80;;;17.90;48.90;;;;;;7372582;19;20407;-82
2022/04/29 04:32:16;;;;;;;31.73;18.25;;;17.80;49.10;;;;;;7374874;19;20987;-89
2022/04/29 04:34:54;;;;;;;30.02;18.48;;;17.80;49.40;;;;;;7400033;19;20034;-89
2022/04/29 04:37:27;;;;;;;39.55;20.90;;;17.80;49.60;;;;;;7376767;19;20135;-84
2022/04/29 04:39:58;;;;;;;40.08;21.05;;;17.70;49.30;;;;;;7380280;19;20087;-88
2022/04/29 04:42:28;;;;;;;33.60;19.20;;;17.70;49.30;;;;;;7383368;19;20027;-84
2022/04/29 04:44:57;;;;;;;30.65;19.05;;;17.70;49.30;;;;;;7376796;19;20020;-90
2022/04/29 04:47:29;;;;;;;35.00;20.15;;;17.70;49.40;;;;;;7372961;19;20018;-85
2022/04/29 04:49:58;;;;;;;36.72;21.10;;;17.80;49.40;;;;;;7392784;19;20082;-78
2022/04/29 04:52:29;;;;;;;35.42;19.33;;;17.80;49.50;;;;;;7373512;19;20022;-82
2022/04/29 04:54:58;;;;;;;37.90;19.50;;;17.60;49.40;;;;;;7373210;19;20058;-84
2022/04/29 04:57:27;;;;;;;29.75;18.85;;;17.60;49.70;;;;;;7379044;19;20554;-88
2022/04/29 04:59:56;;;;;;;34.95;19.67;;;17.60;49.70;;;;;;7383294;19;20010;-85
2022/04/29 05:02:25;;;;;;;36.92;20.42;;;17.50;49.70;;;;;;7380274;19;20779;-84
2022/04/29 05:04:53;;;;;;;35.10;19.35;;;17.50;49.80;;;;;;7396166;19;20019;-85
2022/04/29 05:07:22;;;;;;;41.17;20.02;;;17.60;49.60;;;;;;7374169;19;20101;-79
2022/04/29 05:09:53;;;;;;;35.80;19.63;;;17.60;49.10;;;;;;7373909;19;20011;-79
2022/04/29 05:12:24;;;;;;;39.63;20.50;;;17.70;49.30;;;;;;7373615;19;20109;-84
2022/04/29 05:14:53;;;;;;;39.80;21.45;;;17.70;50.00;;;;;;7372647;19;20078;-81
2022/04/29 05:17:23;;;;;;;39.88;21.00;;;17.70;49.10;;;;;;7373345;19;20070;-81
2022/04/29 05:19:51;;;;;;;39.97;20.33;;;17.60;49.10;;;;;;7393728;19;20018;-81
2022/04/29 05:22:20;;;;;;;38.63;21.40;;;17.60;49.20;;;;;;7376081;19;20093;-83
2022/04/29 05:24:52;;;;;;;43.38;22.40;;;17.50;49.30;;;;;;7373673;19;20010;-84
2022/04/29 05:27:21;;;;;;;37.20;19.75;;;17.50;49.30;;;;;;7376606;19;20007;-81
2022/04/29 05:29:50;;;;;;;41.15;21.55;;;17.50;49.40;;;;;;7373927;19;20014;-84
2022/04/29 05:32:18;;;;;;;43.13;20.65;;;17.50;49.30;;;;;;7374457;19;20014;-83
2022/04/29 05:34:48;;;;;;;36.65;21.02;;;17.40;49.40;;;;;;7394446;19;20047;-81
2022/04/29 05:37:17;;;;;;;39.47;21.95;;;17.40;49.50;;;;;;7370331;19;20907;-78
2022/04/29 05:42:30;;;;;;;41.28;20.15;;;17.40;49.70;;;;;;7374713;19;20026;-83
2022/04/29 05:44:58;;;;;;;38.35;21.15;;;17.40;49.70;;;;;;7379269;19;20032;-84
2022/04/29 05:47:27;;;;;;;37.13;21.75;;;17.50;49.70;;;;;;7376702;19;20074;-86
2022/04/29 05:49:56;;;;;;;38.25;20.77;;;17.40;49.50;;;;;;7395447;19;20026;-79
2022/04/29 05:52:26;;;;;;;39.47;20.50;;;17.40;49.70;;;;;;7378152;19;20014;-85
2022/04/29 05:54:54;;;;;;;36.10;21.13;;;17.60;49.70;;;;;;7375181;19;20092;-85
2022/04/29 05:57:23;;;;;;;38.08;21.02;;;17.60;49.50;;;;;;7372325;19;20022;-80
2022/04/29 05:59:54;;;;;;;39.25;21.15;;;17.60;49.40;;;;;;7373322;19;20086;-80
2022/04/29 06:02:24;;;;;;;42.88;22.00;;;17.70;49.30;;;;;;7373772;19;20476;-83
2022/04/29 06:04:53;;;;;;;33.95;20.95;;;17.70;49.30;;;;;;7395861;19;20686;-81
2022/04/29 06:07:21;;;;;;;38.83;20.33;;;17.70;49.30;;;;;;7370978;19;20010;-82
2022/04/29 06:09:50;;;;;;;39.33;19.92;;;17.70;49.30;;;;;;7368636;19;20060;-78
2022/04/29 06:12:19;;;;;;;35.63;20.95;;;17.80;49.40;;;;;;7371567;19;20020;-81
2022/04/29 06:14:47;;;;;;;39.15;21.92;;;17.70;49.20;;;;;;7371139;19;20010;-81
2022/04/29 06:17:21;;;;;;;39.30;19.27;;;17.80;49.30;;;;;;7371687;19;20110;-82
2022/04/29 06:19:50;;;;;;;39.95;19.00;;;17.80;49.20;;;;;;7391683;19;20402;-82
2022/04/29 06:22:18;;;;;;;39.80;19.77;;;17.80;49.20;;;;;;7372375;19;20066;-78
2022/04/29 06:24:47;;;;;;;45.10;19.80;;;17.80;49.20;;;;;;7370340;19;20018;-85
2022/04/29 06:27:16;;;;;;;43.92;21.67;;;17.80;49.40;;;;;;7370243;19;20379;-81
2022/04/29 06:29:44;;;;;;;42.58;21.63;;;17.90;49.50;;;;;;7369030;19;20129;-82
2022/04/29 06:32:13;;;;;;;46.05;21.27;;;17.60;49.20;;;;;;7373839;19;20122;-81
2022/04/29 06:34:45;;;;;;;31.90;19.92;;;17.60;49.40;;;;;;7399040;19;20783;-84
2022/04/29 06:37:20;;;;;;;45.88;20.08;;;17.50;50.20;;;;;;7376728;19;20853;-77
2022/04/29 06:39:49;;;;;;;43.33;20.63;;;17.50;49.90;;;;;;7376457;19;20021;-84
2022/04/29 06:42:17;;;;;;;40.67;19.73;;;17.50;49.70;;;;;;7378165;19;20113;-82
2022/04/29 06:44:46;;;;;;;39.72;19.50;;;17.50;49.80;;;;;;7378843;19;20023;-80
2022/04/29 06:47:15;;;;;;;33.47;18.60;;;17.50;49.80;;;;;;7374440;19;20018;-78
2022/04/29 06:49:46;;;;;;;55.38;19.67;;;17.50;49.80;;;;;;7396954;19;20163;-79
2022/04/29 06:52:15;;;;;;;41.75;20.30;;;17.50;49.60;;;;;;7375416;19;20037;-78
2022/04/29 06:54:44;;;;;;;35.38;19.70;;;17.50;49.50;;;;;;7377981;19;20081;-78
2022/04/29 06:57:12;;;;;;;33.22;19.02;;;17.60;49.60;;;;;;7375989;19;20075;-81
2022/04/29 06:59:41;;;;;;;36.28;18.58;;;17.70;49.70;;;;;;7375478;19;20089;-85
2022/04/29 07:02:10;;;;;;;40.97;18.88;;;17.70;49.80;;;;;;7376910;19;20090;-81
2022/04/29 07:04:39;;;;;;;41.53;20.17;;;17.80;49.80;;;;;;7396807;19;20026;-81
2022/04/29 07:07:11;;;;;;;37.95;19.83;;;17.70;49.20;;;;;;7373248;19;20031;-81
2022/04/29 07:09:40;;;;;;;36.80;20.40;;;17.60;49.60;;;;;;7373682;19;20022;-78
2022/04/29 07:12:11;;;;;;;34.47;18.90;;;17.60;49.50;;;;;;7374754;19;20026;-79
2022/04/29 07:14:39;;;;;;;36.47;19.27;;;17.70;49.50;;;;;;7374615;19;20014;-80
2022/04/29 07:17:10;;;;;;;36.15;19.20;;;17.80;49.40;;;;;;7372808;19;20086;-78
2022/04/29 07:19:39;;;;;;;38.47;20.15;;;18.00;49.50;;;;;;7398067;19;20019;-81
2022/04/29 07:22:11;;;;;;;45.25;20.83;;;18.00;49.40;;;;;;7376110;19;20034;-80
2022/04/29 07:24:39;;;;;;;37.50;20.08;;;18.00;49.20;;;;;;7377574;19;20384;-82
2022/04/29 07:27:09;;;;;;;38.10;20.30;;;17.90;49.00;;;;;;7378210;19;20026;-84
2022/04/29 07:29:38;;;;;;;42.97;20.65;;;17.70;49.30;;;;;;7376639;19;20166;-83
2022/04/29 07:32:07;;;;;;;45.10;21.00;;;17.80;49.40;;;;;;7376236;19;20029;-82
2022/04/29 07:42:52;;;;;;;40.83;21.02;;;17.70;49.30;;;;;;7372888;19;20006;-83
2022/04/29 07:45:20;;;;;;;42.53;21.67;;;17.70;49.50;;;;;;7380026;19;20014;-83
2022/04/29 07:47:50;;;;;;;37.03;20.40;;;17.60;49.30;;;;;;7377174;19;20965;-81
2022/04/29 07:50:18;;;;;;;41.22;21.25;;;17.70;49.30;;;;;;7374552;19;20022;-82
2022/04/29 07:52:50;;;;;;;39.55;20.10;;;17.80;49.30;;;;;;7391714;19;20090;-82
2022/04/29 07:55:18;;;;;;;45.03;20.48;;;17.90;49.30;;;;;;7373208;19;20019;-80
2022/04/29 07:57:47;;;;;;;41.65;20.08;;;18.10;49.20;;;;;;7369761;19;20140;-88
2022/04/29 08:00:17;;;;;;;38.33;20.73;;;18.20;48.90;;;;;;7373602;19;20021;-80
2022/04/29 08:02:46;;;;;;;40.17;21.13;;;18.30;48.70;;;;;;7371104;19;20070;-80
2022/04/29 08:05:15;;;;;;;41.50;20.73;;;18.30;48.50;;;;;;7371693;19;20025;-80
2022/04/29 08:07:44;;;;;;;36.08;20.85;;;18.40;48.90;;;;;;7393452;19;20455;-82
2022/04/29 08:10:15;;;;;;;41.17;22.13;;;18.40;48.70;;;;;;7373925;19;20018;-80
2022/04/29 08:12:44;;;;;;;41.28;20.42;;;18.30;48.20;;;;;;7373716;19;20007;-84
2022/04/29 08:15:13;;;;;;;52.55;21.13;;;18.40;48.60;;;;;;7372145;19;20019;-81
2022/04/29 08:17:41;;;;;;;41.33;21.58;;;18.30;48.50;;;;;;7371532;19;20011;-82
2022/04/29 08:20:12;;;;;;;42.95;21.80;;;18.30;48.60;;;;;;7375213;19;20033;-77
2022/04/29 08:22:42;;;;;;;49.20;22.58;;;18.40;48.60;;;;;;7395055;19;20363;-81
2022/04/29 08:25:11;;;;;;;39.88;22.33;;;18.20;48.50;;;;;;7373525;19;20046;-79
2022/04/29 08:27:43;;;;;;;38.65;21.17;;;18.30;48.80;;;;;;7377348;19;20027;-81
2022/04/29 08:30:12;;;;;;;46.17;23.02;;;18.40;49.50;;;;;;7373327;19;20074;-81
2022/04/29 08:32:42;;;;;;;40.63;22.13;;;18.50;48.70;;;;;;7368974;19;20188;-80
2022/04/29 08:35:12;;;;;;;48.90;22.52;;;18.60;48.10;;;;;;7370722;19;20026;-82
2022/04/29 08:37:41;;;;;;;46.67;23.75;;;18.50;48.20;;;;;;7394875;19;20062;-83
2022/04/29 08:40:11;;;;;;;53.40;22.10;;;18.50;48.10;;;;;;7373300;19;20083;-81
2022/04/29 08:42:43;;;;;;;42.93;22.20;;;18.60;48.40;;;;;;7371939;19;20821;-82
2022/04/29 08:45:14;;;;;;;41.58;22.02;;;18.70;48.40;;;;;;7372347;19;20026;-79
2022/04/29 08:47:44;;;;;;;41.85;22.60;;;18.80;48.80;;;;;;7373458;19;20021;-83
2022/04/29 08:50:14;;;;;;;44.38;23.95;;;18.90;48.70;;;;;;7370436;19;20078;-84
2022/04/29 08:52:44;;;;;;;43.08;24.00;;;18.90;48.20;;;;;;7392178;19;20046;-82
2022/04/29 09:00:41;;;;;;;48.45;22.85;;;19.00;48.20;;;;;;7372952;19;20014;-84
2022/04/29 09:03:14;;;;;;;42.28;24.10;;;19.00;48.30;;;;;;7380664;19;20019;-87
2022/04/29 09:05:43;;;;;;;43.17;24.60;;;18.90;48.10;;;;;;7375778;19;20455;-82
2022/04/29 09:08:19;;;;;;;46.05;25.13;;;19.10;48.20;;;;;;7369438;19;20018;-81
2022/04/29 09:10:52;;;;;;;43.80;24.05;;;19.10;48.20;;;;;;7390843;19;20025;-85
2022/04/29 09:13:25;;;;;;;53.75;25.10;;;19.20;48.40;;;;;;7368747;19;20025;-81
2022/04/29 09:15:57;;;;;;;51.65;24.63;;;19.10;47.90;;;;;;7370094;19;20018;-82
2022/04/29 09:18:34;;;;;;;44.33;24.00;;;19.00;48.10;;;;;;7371193;19;20101;-81
2022/04/29 09:21:07;;;;;;;47.45;24.77;;;18.90;48.30;;;;;;7370268;19;20327;-81
2022/04/29 09:23:38;;;;;;;45.13;25.20;;;19.00;48.60;;;;;;7369455;19;20040;-81
2022/04/29 09:26:09;;;;;;;53.50;25.88;;;19.00;48.40;;;;;;7367854;19;20018;-82
2022/04/29 09:28:40;;;;;;;48.70;26.33;;;19.00;48.10;;;;;;7390079;19;20044;-79
2022/04/29 09:31:09;;;;;;;43.17;24.67;;;19.00;48.10;;;;;;7367681;19;20289;-81
2022/04/29 09:33:38;;;;;;;47.13;24.02;;;19.20;48.40;;;;;;7368099;19;20098;-79
2022/04/29 09:36:07;;;;;;;43.55;24.88;;;19.40;48.40;;;;;;7371287;19;20040;-80
2022/04/29 09:41:26;;;;;;;42.03;23.80;;;19.60;47.60;;;;;;7371217;19;20014;-80
2022/04/29 09:43:58;;;;;;;46.28;24.20;;;19.70;47.00;;;;;;7389188;19;20019;-80
2022/04/29 09:46:27;;;;;;;52.50;24.45;;;19.90;46.90;;;;;;7369759;19;20015;-80
2022/04/29 09:49:06;;;;;;;55.35;24.58;;;20.10;46.30;;;;;;7370127;19;20096;-81
2022/04/29 09:51:49;;;;;;;46.53;25.00;;;20.10;46.50;;;;;;7371347;19;20018;-79
2022/04/29 09:54:21;;;;;;;42.47;23.55;;;20.10;46.30;;;;;;7371651;19;20026;-82
2022/04/29 09:57:05;;;;;;;43.40;24.55;;;20.10;46.50;;;;;;7370136;19;20032;-82
2022/04/29 09:59:40;;;;;;;49.10;25.00;;;20.10;46.50;;;;;;7369615;19;22640;-83
2022/04/29 10:02:13;;;;;;;39.35;23.45;;;20.10;45.90;;;;;;7370982;19;20011;-81
2022/04/29 10:04:43;;;;;;;45.65;23.75;;;20.20;46.10;;;;;;7390716;19;20021;-83
2022/04/29 10:07:13;;;;;;;40.00;23.40;;;20.30;46.30;;;;;;7377312;19;20114;-82
2022/04/29 10:09:44;;;;;;;45.63;25.45;;;20.30;46.50;;;;;;7379608;19;20776;-82
2022/04/29 10:12:16;;;;;;;43.83;24.75;;;20.20;46.00;;;;;;7378169;19;20034;-85
2022/04/29 10:14:48;;;;;;;46.15;23.52;;;20.30;46.50;;;;;;7379125;19;20013;-81
2022/04/29 10:22:46;;;;;;;38.22;22.27;;;20.20;45.50;;;;;;7378573;19;20003;-83
2022/04/29 10:25:15;;;;;;;41.08;22.52;;;20.30;45.80;;;;;;7377340;19;20028;-87
2022/04/29 10:27:45;;;;;;;37.15;23.35;;;20.40;45.70;;;;;;7380599;19;20093;-85
2022/04/29 10:30:19;;;;;;;45.60;23.65;;;20.20;45.40;;;;;;7377792;19;20098;-80
2022/04/29 10:33:05;;;;;;;39.88;22.67;;;20.20;45.90;;;;;;7376976;19;20098;-81
2022/04/29 10:36:05;;;;;;;46.55;23.17;;;20.20;45.80;;;;;;7378231;19;20030;-83
2022/04/29 10:38:35;;;;;;;44.97;22.90;;;20.30;45.50;;;;;;7378386;19;20081;-82
2022/04/29 10:41:28;;;;;;;38.90;22.75;;;20.30;45.00;;;;;;7393631;19;20014;-82
2022/04/29 10:44:21;;;;;;;43.88;22.00;;;20.30;45.20;;;;;;7405940;19;20079;-85
2022/04/29 10:46:52;;;;;;;34.28;21.38;;;20.50;45.80;;;;;;7377059;19;20014;-82
2022/04/29 10:49:29;;;;;;;36.55;20.50;;;20.70;45.80;;;;;;7376174;19;20022;-82
2022/04/29 10:52:00;;;;;;;39.83;22.27;;;20.90;45.60;;;;;;7380223;19;20082;-81
2022/04/29 10:54:45;;;;;;;;;;;21.00;44.20;;;;;;7378147;19;20021;-78
2022/04/29 10:57:15;;;;;;;36.72;21.77;;;21.00;44.30;;;;;;7376686;19;19919;-78
2022/04/29 10:59:56;;;;;;;39.88;21.67;;;21.00;44.60;;;;;;7375392;19;20014;-78
2022/04/29 11:02:29;;;;;;;40.00;22.63;;;21.00;44.50;;;;;;7376882;19;20004;-79
2022/04/29 11:04:59;;;;;;;43.17;21.83;;;20.70;44.30;;;;;;7398091;19;20438;-81
2022/04/29 11:07:45;;;;;;;42.17;20.50;;;20.50;45.10;;;;;;7374492;19;20521;-79
2022/04/29 11:10:22;;;;;;;36.47;21.00;;;20.60;45.40;;;;;;7374607;19;20098;-79
2022/04/29 11:13:03;;;;;;;40.42;22.15;;;20.80;45.20;;;;;;7375035;19;20058;-79
2022/04/29 11:15:45;;;;;;;41.57;21.80;;;20.60;44.30;;;;;;7375576;19;20011;-79
2022/04/29 11:18:34;;;;;;;33.28;19.38;;;20.50;44.80;;;;;;7376937;19;20010;-85
2022/04/29 11:24:40;;;;;;;34.50;21.05;;;20.60;45.60;;;;;;7376375;19;20027;-82
2022/04/29 11:26:44;;;;;;;35.90;19.77;;;21.00;44.50;;;;;;7378870;19;20338;-83
2022/04/29 11:29:13;;;;;;;34.40;20.27;;;20.90;44.30;;;;;;7379508;19;20085;-82
2022/04/29 11:31:42;;;;;;;34.17;19.42;;;20.90;44.40;;;;;;7399799;19;20101;-84
2022/04/29 11:34:15;;;;;;;34.15;19.92;;;21.10;44.70;;;;;;7377779;19;20031;-84
2022/04/29 11:36:45;;;;;;;38.35;18.80;;;21.20;45.10;;;;;;7375394;19;20024;-82
2022/04/29 11:39:18;;;;;;;31.58;19.13;;;21.40;44.90;;;;;;7377201;19;20011;-81
2022/04/29 11:41:56;;;;;;;33.55;18.80;;;21.50;44.50;;;;;;7375082;19;20085;-83
2022/04/29 11:44:38;;;;;;;42.30;20.17;;;21.70;44.80;;;;;;7379832;19;20003;-82
2022/04/29 11:47:08;;;;;;;39.67;21.60;;;21.70;42.90;;;;;;7377846;19;20022;-81
2022/04/29 11:49:42;;;;;;;39.15;21.80;;;21.50;43.00;;;;;;7400345;19;20094;-87
2022/04/29 11:52:25;;;;;;;43.17;21.15;;;21.40;43.50;;;;;;7387038;19;20022;-86
2022/04/29 11:54:55;;;;;;;34.47;18.90;;;21.40;43.60;;;;;;7382451;19;20019;-85
2022/04/29 11:57:24;;;;;;;36.47;20.30;;;21.50;44.20;;;;;;7374802;19;20127;-80
2022/04/29 11:59:53;;;;;;;31.45;19.58;;;21.40;43.80;;;;;;7374239;19;20015;-80
2022/04/29 12:02:25;;;;;;;43.63;20.58;;;21.30;43.90;;;;;;7382407;19;20019;-85
2022/04/29 12:05:01;;;;;;;38.60;20.75;;;21.40;44.00;;;;;;7400765;19;20003;-85
2022/04/29 12:07:34;;;;;;;39.00;20.25;;;21.20;44.10;;;;;;7381992;19;20022;-86
2022/04/29 12:10:03;;;;;;;35.90;19.35;;;21.30;44.50;;;;;;7375054;19;20441;-78
2022/04/29 12:12:33;;;;;;;39.50;20.52;;;21.20;44.00;;;;;;7372013;19;20021;-83
2022/04/29 12:15:03;;;;;;;36.33;20.38;;;21.40;43.80;;;;;;7375720;19;20392;-84
2022/04/29 12:17:36;;;;;;;40.17;21.37;;;21.30;43.80;;;;;;7377774;19;20022;-82
2022/04/29 12:20:10;;;;;;;32.05;18.33;;;21.30;43.40;;;;;;7375839;19;20010;-81
2022/04/29 12:22:40;;;;;;;34.83;19.73;;;21.40;43.80;;;;;;7396572;19;20026;-77
2022/04/29 12:25:38;;;;;;;43.05;21.02;;;21.60;44.00;;;;;;7370235;19;20605;-77
2022/04/29 12:28:14;;;;;;;32.90;20.00;;;21.50;43.10;;;;;;7366100;19;20022;-76
2022/04/29 12:36:29;;;;;;;28.65;18.00;;;21.20;43.10;;;;;;7369854;19;20018;-78
2022/04/29 12:39:07;;;;;;;29.67;17.25;;;21.40;43.30;;;;;;7368058;19;20014;-77
2022/04/29 12:41:36;;;;;;;38.42;18.33;;;21.50;42.70;;;;;;7367451;19;20335;-75
2022/04/29 12:45:03;;;;;;;33.10;18.15;;;21.60;41.70;;;;;;7371024;19;20353;-76
2022/04/29 12:47:06;;;;;;;28.85;15.57;;;21.50;42.10;;;;;;7390488;19;20032;-75
2022/04/29 12:49:35;;;;;;;26.30;14.95;;;21.50;42.60;;;;;;7368492;19;20006;-75
2022/04/29 12:52:06;;;;;;;32.47;17.63;;;21.60;42.70;;;;;;7364346;19;20018;-76
2022/04/29 12:54:35;;;;;;;34.97;16.23;;;21.70;43.10;;;;;;7367622;19;20021;-77
2022/04/29 12:57:05;;;;;;;30.85;16.35;;;21.90;43.50;;;;;;7366201;19;20017;-79
2022/04/29 12:59:38;;;;;;;29.23;15.65;;;22.00;43.30;;;;;;7366094;19;20014;-76
2022/04/29 13:02:08;;;;;;;27.98;15.02;;;22.10;43.10;;;;;;7364965;19;20015;-79
2022/04/29 13:04:37;;;;;;;27.15;14.75;;;22.20;42.20;;;;;;7390772;19;20031;-77
2022/04/29 13:07:12;;;;;;;33.47;16.63;;;22.30;41.90;;;;;;7368981;19;20027;-76
2022/04/29 13:09:41;;;;;;;29.92;15.90;;;22.00;40.40;;;;;;7368854;19;20011;-80
2022/04/29 13:12:11;;;;;;;35.30;17.60;;;22.20;41.00;;;;;;7369088;19;20722;-79
2022/04/29 13:14:40;;;;;;;32.05;16.67;;;22.10;40.10;;;;;;7367994;19;20095;-78
2022/04/29 13:17:09;;;;;;;30.52;15.95;;;22.20;41.10;;;;;;7368466;19;20086;-82
2022/04/29 13:19:39;;;;;;;29.55;16.67;;;22.30;41.40;;;;;;7390767;19;20032;-76
2022/04/29 13:22:11;;;;;;;28.42;15.65;;;22.30;40.60;;;;;;7367660;19;20021;-75